sensor_id;sensor_type;location;lat;lon;timestamp;pressure;altitude;pressure_sealevel;temperature;humidity
49835;BME280;35729;52.090;13.162;2022-10-30T00:01:03;101343.88;;;14.22;92.46
49835;BME280;35729;52.090;13.162;2022-10-30T00:03:32;101339.50;;;14.21;92.33
49835;BME280;35729;52.090;13.162;2022-10-30T00:06:03;101346.56;;;14.19;92.44
49835;BME280;35729;52.090;13.162;2022-10-30T00:08:32;101348.34;;;14.18;92.39
49835;BME280;35729;52.090;13.162;2022-10-30T00:11:08;101351.91;;;14.17;92.09
49835;BME280;35729;52.090;13.162;2022-10-30T00:13:37;101334.31;;;14.16;92.29
49835;BME280;35729;52.090;13.162;2022-10-30T00:16:07;101330.88;;;14.14;92.30
49835;BME280;35729;52.090;13.162;2022-10-30T00:18:36;101327.34;;;14.14;92.24
49835;BME280;35729;52.090;13.162;2022-10-30T00:21:08;101330.09;;;14.11;92.20
49835;BME280;35729;52.090;13.162;2022-10-30T00:23:37;101331.91;;;14.09;92.27
49835;BME280;35729;52.090;13.162;2022-10-30T00:26:08;101327.56;;;14.06;92.24
49835;BME280;35729;52.090;13.162;2022-10-30T00:28:36;101323.25;;;14.04;92.34
49835;BME280;35729;52.090;13.162;2022-10-30T00:31:05;101326.78;;;14.02;92.53
49835;BME280;35729;52.090;13.162;2022-10-30T00:33:34;101320.75;;;13.99;92.24
49835;BME280;35729;52.090;13.162;2022-10-30T00:36:03;101323.41;;;13.97;92.35
49835;BME280;35729;52.090;13.162;2022-10-30T00:38:38;101317.31;;;13.95;92.45
49835;BME280;35729;52.090;13.162;2022-10-30T00:41:13;101308.63;;;13.92;92.48
49835;BME280;35729;52.090;13.162;2022-10-30T00:43:48;101307.78;;;13.90;92.35
49835;BME280;35729;52.090;13.162;2022-10-30T00:46:24;101310.53;;;13.87;92.35
49835;BME280;35729;52.090;13.162;2022-10-30T00:48:57;101308.84;;;13.84;92.32
49835;BME280;35729;52.090;13.162;2022-10-30T00:51:28;101309.78;;;13.80;92.36
49835;BME280;35729;52.090;13.162;2022-10-30T00:53:59;101310.75;;;13.77;92.47
49835;BME280;35729;52.090;13.162;2022-10-30T00:56:32;101302.06;;;13.74;92.34
49835;BME280;35729;52.090;13.162;2022-10-30T00:59:03;101298.66;;;13.70;92.34
49835;BME280;35729;52.090;13.162;2022-10-30T01:01:35;101293.44;;;13.67;92.67
49835;BME280;35729;52.090;13.162;2022-10-30T01:04:05;101295.25;;;13.65;92.26
49835;BME280;35729;52.090;13.162;2022-10-30T01:06:36;101289.19;;;13.61;92.51
49835;BME280;35729;52.090;13.162;2022-10-30T01:09:06;101287.50;;;13.59;92.69
49835;BME280;35729;52.090;13.162;2022-10-30T01:11:37;101302.50;;;13.57;92.90
49835;BME280;35729;52.090;13.162;2022-10-30T01:14:07;101294.66;;;13.54;92.63
49835;BME280;35729;52.090;13.162;2022-10-30T01:16:51;101282.44;;;13.51;92.59
49835;BME280;35729;52.090;13.162;2022-10-30T01:19:27;101293.94;;;13.48;92.69
49835;BME280;35729;52.090;13.162;2022-10-30T01:22:11;101294.88;;;13.46;92.74
49835;BME280;35729;52.090;13.162;2022-10-30T01:24:50;101287.84;;;13.45;92.86
49835;BME280;35729;52.090;13.162;2022-10-30T01:27:34;101284.47;;;13.40;92.83
49835;BME280;35729;52.090;13.162;2022-10-30T01:30:18;101291.53;;;13.38;93.01
49835;BME280;35729;52.090;13.162;2022-10-30T01:33:02;101290.66;;;13.35;92.94
49835;BME280;35729;52.090;13.162;2022-10-30T01:35:36;101288.97;;;13.33;93.20
49835;BME280;35729;52.090;13.162;2022-10-30T01:38:12;101285.50;;;13.32;93.13
49835;BME280;35729;52.090;13.162;2022-10-30T01:40:43;101282.91;;;13.31;93.46
49835;BME280;35729;52.090;13.162;2022-10-30T01:43:14;101286.44;;;13.30;93.28
49835;BME280;35729;52.090;13.162;2022-10-30T01:45:54;101275.94;;;13.28;93.21
49835;BME280;35729;52.090;13.162;2022-10-30T01:48:41;101276.88;;;13.26;93.41
49835;BME280;35729;52.090;13.162;2022-10-30T01:51:19;101281.25;;;13.25;93.57
49835;BME280;35729;52.090;13.162;2022-10-30T01:53:58;101280.44;;;13.23;93.45
49835;BME280;35729;52.090;13.162;2022-10-30T01:56:36;101283.97;;;13.22;93.54
49835;BME280;35729;52.090;13.162;2022-10-30T01:59:13;101276.13;;;13.20;93.44
49835;BME280;35729;52.090;13.162;2022-10-30T02:01:42;101277.91;;;13.18;93.52
49835;BME280;35729;52.090;13.162;2022-10-30T02:04:12;101281.41;;;13.19;93.73
49835;BME280;35729;52.090;13.162;2022-10-30T02:06:41;101272.75;;;13.14;93.46
49835;BME280;35729;52.090;13.162;2022-10-30T02:09:10;101286.72;;;13.17;93.82
49835;BME280;35729;52.090;13.162;2022-10-30T02:11:39;101275.34;;;13.17;93.56
49835;BME280;35729;52.090;13.162;2022-10-30T02:14:10;101281.44;;;13.17;93.75
49835;BME280;35729;52.090;13.162;2022-10-30T02:16:45;101280.56;;;13.18;93.78
49835;BME280;35729;52.090;13.162;2022-10-30T02:19:15;101274.44;;;13.16;93.88
49835;BME280;35729;52.090;13.162;2022-10-30T02:21:47;101276.22;;;13.16;93.95
49835;BME280;35729;52.090;13.162;2022-10-30T02:24:15;101271.81;;;13.16;93.72
49835;BME280;35729;52.090;13.162;2022-10-30T02:26:44;101270.97;;;13.16;93.78
49835;BME280;35729;52.090;13.162;2022-10-30T02:29:12;101270.06;;;13.15;94.09
49835;BME280;35729;52.090;13.162;2022-10-30T02:31:43;101267.44;;;13.15;94.10
49835;BME280;35729;52.090;13.162;2022-10-30T02:34:12;101269.19;;;13.16;94.12
49835;BME280;35729;52.090;13.162;2022-10-30T02:36:40;101261.28;;;13.16;93.86
49835;BME280;35729;52.090;13.162;2022-10-30T02:39:11;101267.44;;;13.17;94.16
49835;BME280;35729;52.090;13.162;2022-10-30T02:41:40;101270.06;;;13.17;94.14
49835;BME280;35729;52.090;13.162;2022-10-30T02:44:08;101268.28;;;13.17;94.00
49835;BME280;35729;52.090;13.162;2022-10-30T02:46:37;101272.69;;;13.17;94.14
49835;BME280;35729;52.090;13.162;2022-10-30T02:49:06;101271.81;;;13.16;94.28
49835;BME280;35729;52.090;13.162;2022-10-30T02:51:34;101266.53;;;13.16;94.00
49835;BME280;35729;52.090;13.162;2022-10-30T02:54:03;101273.53;;;13.17;94.10
49835;BME280;35729;52.090;13.162;2022-10-30T02:56:34;101266.53;;;13.16;94.12
49835;BME280;35729;52.090;13.162;2022-10-30T02:59:02;101273.53;;;13.17;94.01
49835;BME280;35729;52.090;13.162;2022-10-30T03:01:31;101276.19;;;13.17;94.13
49835;BME280;35729;52.090;13.162;2022-10-30T03:03:59;101282.34;;;13.16;94.28
49835;BME280;35729;52.090;13.162;2022-10-30T03:06:28;101281.44;;;13.17;94.14
49835;BME280;35729;52.090;13.162;2022-10-30T03:08:56;101277.97;;;13.17;93.82
49835;BME280;35729;52.090;13.162;2022-10-30T03:11:25;101284.09;;;13.17;94.04
49835;BME280;35729;52.090;13.162;2022-10-30T03:13:56;101283.22;;;13.17;93.96
49835;BME280;35729;52.090;13.162;2022-10-30T03:16:25;101283.22;;;13.17;94.06
49835;BME280;35729;52.090;13.162;2022-10-30T03:18:55;101290.22;;;13.18;94.07
49835;BME280;35729;52.090;13.162;2022-10-30T03:21:26;101277.97;;;13.17;94.04
49835;BME280;35729;52.090;13.162;2022-10-30T03:23:55;101283.22;;;13.17;93.80
49835;BME280;35729;52.090;13.162;2022-10-30T03:26:23;101280.59;;;13.17;93.94
49835;BME280;35729;52.090;13.162;2022-10-30T03:28:51;101270.06;;;13.15;93.97
49835;BME280;35729;52.090;13.162;2022-10-30T03:31:23;101265.69;;;13.16;93.86
49835;BME280;35729;52.090;13.162;2022-10-30T03:33:51;101256.91;;;13.15;93.93
49835;BME280;35729;52.090;13.162;2022-10-30T03:36:19;101249.88;;;13.16;93.86
49835;BME280;35729;52.090;13.162;2022-10-30T03:38:48;101242.88;;;13.15;94.10
49835;BME280;35729;52.090;13.162;2022-10-30T03:41:16;101231.47;;;13.14;93.90
49835;BME280;35729;52.090;13.162;2022-10-30T03:43:45;101233.19;;;13.15;93.65
49835;BME280;35729;52.090;13.162;2022-10-30T03:46:13;101227.06;;;13.15;93.59
49835;BME280;35729;52.090;13.162;2022-10-30T03:48:47;101218.28;;;13.16;93.73
49835;BME280;35729;52.090;13.162;2022-10-30T03:51:16;101222.66;;;13.15;93.62
49835;BME280;35729;52.090;13.162;2022-10-30T03:53:44;101234.06;;;13.16;93.47
49835;BME280;35729;52.090;13.162;2022-10-30T03:56:13;101231.47;;;13.14;93.50
49835;BME280;35729;52.090;13.162;2022-10-30T03:58:41;101241.13;;;13.14;93.25
49835;BME280;35729;52.090;13.162;2022-10-30T04:01:09;101252.56;;;13.14;93.27
49835;BME280;35729;52.090;13.162;2022-10-30T04:03:38;101236.81;;;13.11;93.38
49835;BME280;35729;52.090;13.162;2022-10-30T04:06:09;101235.91;;;13.12;93.06
49835;BME280;35729;52.090;13.162;2022-10-30T04:08:38;101229.81;;;13.10;92.97
49835;BME280;35729;52.090;13.162;2022-10-30T04:11:08;101215.81;;;13.08;93.06
49835;BME280;35729;52.090;13.162;2022-10-30T04:13:37;101184.22;;;13.07;93.09
49835;BME280;35729;52.090;13.162;2022-10-30T04:16:06;101150.94;;;13.04;93.01
49835;BME280;35729;52.090;13.162;2022-10-30T04:18:34;101160.72;;;13.00;93.02
49835;BME280;35729;52.090;13.162;2022-10-30T04:21:03;101213.41;;;12.99;93.06
49835;BME280;35729;52.090;13.162;2022-10-30T04:23:34;101232.75;;;12.98;93.27
49835;BME280;35729;52.090;13.162;2022-10-30T04:26:09;101217.84;;;12.97;93.21
49835;BME280;35729;52.090;13.162;2022-10-30T04:28:37;101224.03;;;12.96;93.00
49835;BME280;35729;52.090;13.162;2022-10-30T04:31:06;101220.50;;;12.97;92.95
49835;BME280;35729;52.090;13.162;2022-10-30T04:33:34;101226.66;;;12.96;92.83
49835;BME280;35729;52.090;13.162;2022-10-30T04:36:03;101215.22;;;12.95;92.85
49835;BME280;35729;52.090;13.162;2022-10-30T04:38:34;101228.38;;;12.97;92.80
49835;BME280;35729;52.090;13.162;2022-10-30T04:41:03;101225.72;;;12.98;92.55
49835;BME280;35729;52.090;13.162;2022-10-30T04:43:31;101229.19;;;13.00;92.67
49835;BME280;35729;52.090;13.162;2022-10-30T04:46:03;101233.50;;;13.03;92.43
49835;BME280;35729;52.090;13.162;2022-10-30T04:48:31;101231.69;;;13.05;92.20
49835;BME280;35729;52.090;13.162;2022-10-30T04:51:01;101228.13;;;13.08;92.21
49835;BME280;35729;52.090;13.162;2022-10-30T04:53:30;101224.53;;;13.10;91.81
49835;BME280;35729;52.090;13.162;2022-10-30T04:56:01;101237.66;;;13.13;91.83
49835;BME280;35729;52.090;13.162;2022-10-30T04:58:29;101231.44;;;13.16;91.58
49835;BME280;35729;52.090;13.162;2022-10-30T05:00:59;101241.94;;;13.17;91.92
49835;BME280;35729;52.090;13.162;2022-10-30T05:03:28;101243.66;;;13.18;91.58
49835;BME280;35729;52.090;13.162;2022-10-30T05:05:58;101236.66;;;13.17;91.66
49835;BME280;35729;52.090;13.162;2022-10-30T05:08:28;101222.63;;;13.17;91.40
49835;BME280;35729;52.090;13.162;2022-10-30T05:10:57;101231.44;;;13.16;91.34
49835;BME280;35729;52.090;13.162;2022-10-30T05:13:28;101241.06;;;13.17;91.16
49835;BME280;35729;52.090;13.162;2022-10-30T05:15:56;101247.25;;;13.16;91.29
49835;BME280;35729;52.090;13.162;2022-10-30T05:18:25;101256.13;;;13.12;91.75
49835;BME280;35729;52.090;13.162;2022-10-30T05:20:53;101243.84;;;13.11;91.67
49835;BME280;35729;52.090;13.162;2022-10-30T05:23:22;101232.44;;;13.10;91.40
49835;BME280;35729;52.090;13.162;2022-10-30T05:25:50;101226.38;;;13.08;91.34
49835;BME280;35729;52.090;13.162;2022-10-30T05:28:19;101225.53;;;13.06;91.08
49835;BME280;35729;52.090;13.162;2022-10-30T05:30:51;101225.56;;;13.04;91.19
49835;BME280;35729;52.090;13.162;2022-10-30T05:33:20;101228.25;;;13.01;91.25
49835;BME280;35729;52.090;13.162;2022-10-30T05:35:48;101226.56;;;12.99;91.25
49835;BME280;35729;52.090;13.162;2022-10-30T05:38:17;101229.28;;;12.96;91.16
49835;BME280;35729;52.090;13.162;2022-10-30T05:40:45;101224.06;;;12.93;91.11
49835;BME280;35729;52.090;13.162;2022-10-30T05:43:14;101229.44;;;12.90;91.19
49835;BME280;35729;52.090;13.162;2022-10-30T05:45:42;101231.22;;;12.87;91.26
49835;BME280;35729;52.090;13.162;2022-10-30T05:48:13;101229.53;;;12.85;91.43
49835;BME280;35729;52.090;13.162;2022-10-30T05:50:42;101223.47;;;12.81;91.11
49835;BME280;35729;52.090;13.162;2022-10-30T05:53:10;101224.41;;;12.79;91.44
49835;BME280;35729;52.090;13.162;2022-10-30T05:55:39;101213.94;;;12.76;91.64
49835;BME280;35729;52.090;13.162;2022-10-30T05:58:08;101211.41;;;12.73;91.36
49835;BME280;35729;52.090;13.162;2022-10-30T06:00:37;101208.84;;;12.69;91.61
49835;BME280;35729;52.090;13.162;2022-10-30T06:03:09;101205.41;;;12.66;91.61
49835;BME280;35729;52.090;13.162;2022-10-30T06:05:43;101199.31;;;12.64;91.94
49835;BME280;35729;52.090;13.162;2022-10-30T06:08:12;101193.25;;;12.60;91.89
49835;BME280;35729;52.090;13.162;2022-10-30T06:10:42;101190.69;;;12.57;91.98
49835;BME280;35729;52.090;13.162;2022-10-30T06:13:11;101192.50;;;12.53;92.02
49835;BME280;35729;52.090;13.162;2022-10-30T06:15:39;101198.72;;;12.51;92.31
49835;BME280;35729;52.090;13.162;2022-10-30T06:18:08;101208.47;;;12.47;92.19
49835;BME280;35729;52.090;13.162;2022-10-30T06:20:36;101193.59;;;12.45;92.47
49835;BME280;35729;52.090;13.162;2022-10-30T06:23:09;101215.56;;;12.44;92.77
49835;BME280;35729;52.090;13.162;2022-10-30T06:25:37;101223.53;;;12.39;92.61
49835;BME280;35729;52.090;13.162;2022-10-30T06:28:06;101232.34;;;12.38;92.76
49835;BME280;35729;52.090;13.162;2022-10-30T06:30:35;101250.75;;;12.38;92.78
49835;BME280;35729;52.090;13.162;2022-10-30T06:33:10;101243.75;;;12.37;92.88
49835;BME280;35729;52.090;13.162;2022-10-30T06:35:39;101270.06;;;12.37;92.73
49835;BME280;35729;52.090;13.162;2022-10-30T06:38:10;101254.28;;;12.37;92.83
49835;BME280;35729;52.090;13.162;2022-10-30T06:40:47;101263.09;;;12.36;92.87
49835;BME280;35729;52.090;13.162;2022-10-30T06:43:15;101254.28;;;12.37;92.91
49835;BME280;35729;52.090;13.162;2022-10-30T06:45:43;101263.09;;;12.36;92.82
49835;BME280;35729;52.090;13.162;2022-10-30T06:48:12;101248.19;;;12.35;92.99
49835;BME280;35729;52.090;13.162;2022-10-30T06:50:40;101236.81;;;12.33;92.94
49835;BME280;35729;52.090;13.162;2022-10-30T06:53:11;101266.63;;;12.35;92.89
49835;BME280;35729;52.090;13.162;2022-10-30T06:55:40;101249.94;;;12.36;93.07
49835;BME280;35729;52.090;13.162;2022-10-30T06:58:08;101250.75;;;12.38;93.06
49835;BME280;35729;52.090;13.162;2022-10-30T07:00:37;101238.47;;;12.38;93.22
49835;BME280;35729;52.090;13.162;2022-10-30T07:03:05;101235.78;;;12.42;93.23
49835;BME280;35729;52.090;13.162;2022-10-30T07:05:34;101255.88;;;12.44;93.14
49835;BME280;35729;52.090;13.162;2022-10-30T07:08:02;101254.03;;;12.49;93.22
49835;BME280;35729;52.090;13.162;2022-10-30T07:10:33;101262.75;;;12.51;92.89
49835;BME280;35729;52.090;13.162;2022-10-30T07:13:02;101249.53;;;12.54;92.92
49835;BME280;35729;52.090;13.162;2022-10-30T07:15:31;101252.09;;;12.58;92.84
49835;BME280;35729;52.090;13.162;2022-10-30T07:18:00;101260.81;;;12.60;92.95
49835;BME280;35729;52.090;13.162;2022-10-30T07:20:31;101242.34;;;12.63;92.76
49835;BME280;35729;52.090;13.162;2022-10-30T07:23:00;101251.03;;;12.65;92.76
49835;BME280;35729;52.090;13.162;2022-10-30T07:25:29;101251.00;;;12.68;92.74
49835;BME280;35729;52.090;13.162;2022-10-30T07:28:00;101245.66;;;12.71;92.70
49835;BME280;35729;52.090;13.162;2022-10-30T07:30:28;101249.03;;;12.76;92.43
49835;BME280;35729;52.090;13.162;2022-10-30T07:32:58;101248.94;;;12.81;92.47
49835;BME280;35729;52.090;13.162;2022-10-30T07:35:27;101247.97;;;12.85;92.21
49835;BME280;35729;52.090;13.162;2022-10-30T07:38:00;101251.34;;;12.90;92.28
49835;BME280;35729;52.090;13.162;2022-10-30T07:40:29;101250.31;;;12.97;92.09
49835;BME280;35729;52.090;13.162;2022-10-30T07:43:01;101258.06;;;13.03;91.97
49835;BME280;35729;52.090;13.162;2022-10-30T07:45:31;101249.19;;;13.09;91.89
49835;BME280;35729;52.090;13.162;2022-10-30T07:48:00;101261.28;;;13.16;91.57
49835;BME280;35729;52.090;13.162;2022-10-30T07:50:28;101254.06;;;13.25;91.40
49835;BME280;35729;52.090;13.162;2022-10-30T07:52:57;101255.63;;;13.32;91.26
49835;BME280;35729;52.090;13.162;2022-10-30T07:55:25;101259.88;;;13.39;91.14
49835;BME280;35729;52.090;13.162;2022-10-30T07:57:54;101254.41;;;13.47;90.81
49835;BME280;35729;52.090;13.162;2022-10-30T08:00:25;101259.47;;;13.55;90.88
49835;BME280;35729;52.090;13.162;2022-10-30T08:02:55;101246.13;;;13.61;90.11
49835;BME280;35729;52.090;13.162;2022-10-30T08:05:24;101249.50;;;13.66;90.22
49835;BME280;35729;52.090;13.162;2022-10-30T08:07:52;101259.00;;;13.73;89.86
49835;BME280;35729;52.090;13.162;2022-10-30T08:10:21;101257.97;;;13.79;89.37
49835;BME280;35729;52.090;13.162;2022-10-30T08:12:49;101269.28;;;13.84;89.36
49835;BME280;35729;52.090;13.162;2022-10-30T08:15:18;101263.84;;;13.89;88.94
49835;BME280;35729;52.090;13.162;2022-10-30T08:17:49;101272.50;;;13.94;88.78
49835;BME280;35729;52.090;13.162;2022-10-30T08:20:20;101270.66;;;13.97;88.56
49835;BME280;35729;52.090;13.162;2022-10-30T08:22:50;101270.53;;;14.02;88.26
49835;BME280;35729;52.090;13.162;2022-10-30T08:25:21;101269.53;;;14.06;88.04
49835;BME280;35729;52.090;13.162;2022-10-30T08:27:51;101266.72;;;14.12;87.85
49835;BME280;35729;52.090;13.162;2022-10-30T08:30:20;101274.47;;;14.18;87.85
49835;BME280;35729;52.090;13.162;2022-10-30T08:32:51;101271.72;;;14.23;87.55
49835;BME280;35729;52.090;13.162;2022-10-30T08:35:23;101271.53;;;14.29;87.33
49835;BME280;35729;52.090;13.162;2022-10-30T08:37:54;101274.84;;;14.36;87.14
49835;BME280;35729;52.090;13.162;2022-10-30T08:40:22;101258.84;;;14.42;87.30
49835;BME280;35729;52.090;13.162;2022-10-30T08:42:51;101256.03;;;14.48;87.16
49835;BME280;35729;52.090;13.162;2022-10-30T08:45:21;101262.88;;;14.54;87.04
49835;BME280;35729;52.090;13.162;2022-10-30T08:47:58;101272.41;;;14.60;87.10
49835;BME280;35729;52.090;13.162;2022-10-30T08:50:27;101270.53;;;14.65;86.84
49835;BME280;35729;52.090;13.162;2022-10-30T08:52:59;101267.63;;;14.73;86.17
49835;BME280;35729;52.090;13.162;2022-10-30T08:55:28;101270.94;;;14.79;86.24
49835;BME280;35729;52.090;13.162;2022-10-30T08:57:57;101271.63;;;14.86;85.71
49835;BME280;35729;52.090;13.162;2022-10-30T09:00:26;101274.03;;;14.94;85.82
49835;BME280;35729;52.090;13.162;2022-10-30T09:02:57;101275.56;;;15.01;85.57
49835;BME280;35729;52.090;13.162;2022-10-30T09:05:26;101277.94;;;15.09;85.47
49835;BME280;35729;52.090;13.162;2022-10-30T09:07:55;101271.56;;;15.16;85.26
49835;BME280;35729;52.090;13.162;2022-10-30T09:10:25;101273.22;;;15.19;85.35
49835;BME280;35729;52.090;13.162;2022-10-30T09:12:53;101281.75;;;15.28;84.91
49835;BME280;35729;52.090;13.162;2022-10-30T09:15:23;101283.28;;;15.36;84.38
49835;BME280;35729;52.090;13.162;2022-10-30T09:18:01;101278.75;;;15.39;83.92
49835;BME280;35729;52.090;13.162;2022-10-30T09:20:30;101276.81;;;15.44;84.39
49835;BME280;35729;52.090;13.162;2022-10-30T09:22:59;101279.25;;;15.51;84.27
49835;BME280;35729;52.090;13.162;2022-10-30T09:25:27;101277.31;;;15.56;84.09
49835;BME280;35729;52.090;13.162;2022-10-30T09:27:56;101269.19;;;15.62;83.88
49835;BME280;35729;52.090;13.162;2022-10-30T09:30:25;101272.47;;;15.69;83.35
49835;BME280;35729;52.090;13.162;2022-10-30T09:32:54;101273.09;;;15.75;83.20
49835;BME280;35729;52.090;13.162;2022-10-30T09:35:26;101268.50;;;15.80;83.16
49835;BME280;35729;52.090;13.162;2022-10-30T09:37:55;101272.72;;;15.88;82.86
49835;BME280;35729;52.090;13.162;2022-10-30T09:40:33;101271.59;;;15.93;82.10
49835;BME280;35729;52.090;13.162;2022-10-30T09:43:15;101267.03;;;15.99;82.09
49835;BME280;35729;52.090;13.162;2022-10-30T09:45:55;101270.19;;;16.08;82.11
49835;BME280;35729;52.090;13.162;2022-10-30T09:48:58;101271.72;;;16.16;81.46
49835;BME280;35729;52.090;13.162;2022-10-30T09:51:53;101256.41;;;16.24;81.20
49835;BME280;35729;52.090;13.162;2022-10-30T09:54:31;101254.41;;;16.31;80.93
49835;BME280;35729;52.090;13.162;2022-10-30T09:57:08;101256.75;;;16.38;80.86
49835;BME280;35729;52.090;13.162;2022-10-30T09:59:45;101262.59;;;16.47;80.41
49835;BME280;35729;52.090;13.162;2022-10-30T10:02:29;101266.66;;;16.57;80.15
49835;BME280;35729;52.090;13.162;2022-10-30T10:05:05;101265.47;;;16.64;79.53
49835;BME280;35729;52.090;13.162;2022-10-30T10:07:41;101266.03;;;16.72;79.27
49835;BME280;35729;52.090;13.162;2022-10-30T10:10:16;101258.63;;;16.81;78.75
49835;BME280;35729;52.090;13.162;2022-10-30T10:12:48;101263.66;;;16.88;78.71
49835;BME280;35729;52.090;13.162;2022-10-30T10:15:24;101267.81;;;16.96;78.47
49835;BME280;35729;52.090;13.162;2022-10-30T10:17:57;101275.41;;;17.05;78.57
49835;BME280;35729;52.090;13.162;2022-10-30T10:20:32;101280.31;;;17.14;78.37
49835;BME280;35729;52.090;13.162;2022-10-30T10:23:13;101286.16;;;17.22;77.66
49835;BME280;35729;52.090;13.162;2022-10-30T10:25:46;101281.34;;;17.32;77.31
49835;BME280;35729;52.090;13.162;2022-10-30T10:28:32;101273.03;;;17.41;76.78
49835;BME280;35729;52.090;13.162;2022-10-30T10:31:14;101269.91;;;17.52;76.98
49835;BME280;35729;52.090;13.162;2022-10-30T10:34:03;101266.00;;;17.61;74.96
49835;BME280;35729;52.090;13.162;2022-10-30T10:36:42;101260.28;;;17.70;76.06
49835;BME280;35729;52.090;13.162;2022-10-30T10:39:31;101267.78;;;17.81;75.20
49835;BME280;35729;52.090;13.162;2022-10-30T10:42:11;101267.38;;;17.90;75.25
49835;BME280;35729;52.090;13.162;2022-10-30T10:44:50;101268.88;;;17.98;74.76
49835;BME280;35729;52.090;13.162;2022-10-30T10:50:31;101260.00;;;18.18;73.89
49835;BME280;35729;52.090;13.162;2022-10-30T10:53:05;101253.41;;;18.27;73.38
49835;BME280;35729;52.090;13.162;2022-10-30T10:55:43;101257.50;;;18.34;72.57
49835;BME280;35729;52.090;13.162;2022-10-30T10:58:21;101251.84;;;18.42;72.44
49835;BME280;35729;52.090;13.162;2022-10-30T11:00:52;101253.22;;;18.50;72.31
49835;BME280;35729;52.090;13.162;2022-10-30T11:03:28;101251.91;;;18.59;71.74
49835;BME280;35729;52.090;13.162;2022-10-30T11:06:10;101248.81;;;18.68;71.62
49835;BME280;35729;52.090;13.162;2022-10-30T11:08:39;101244.94;;;18.76;71.66
49835;BME280;35729;52.090;13.162;2022-10-30T11:11:10;101241.81;;;18.85;71.78
49835;BME280;35729;52.090;13.162;2022-10-30T11:13:40;101253.84;;;18.94;71.29
49835;BME280;35729;52.090;13.162;2022-10-30T11:16:17;101253.47;;;19.01;70.61
49835;BME280;35729;52.090;13.162;2022-10-30T11:18:52;101252.22;;;19.09;69.91
49835;BME280;35729;52.090;13.162;2022-10-30T11:21:23;101241.28;;;19.15;68.93
49835;BME280;35729;52.090;13.162;2022-10-30T11:23:52;101247.06;;;19.23;67.08
49835;BME280;35729;52.090;13.162;2022-10-30T11:26:32;101244.97;;;19.30;65.72
49835;BME280;35729;52.090;13.162;2022-10-30T11:29:04;101247.25;;;19.37;64.97
49835;BME280;35729;52.090;13.162;2022-10-30T11:31:34;101250.28;;;19.47;64.09
49835;BME280;35729;52.090;13.162;2022-10-30T11:34:23;101242.78;;;19.56;63.50
49835;BME280;35729;52.090;13.162;2022-10-30T11:36:53;101248.63;;;19.62;63.19
49835;BME280;35729;52.090;13.162;2022-10-30T11:39:23;101244.72;;;19.69;62.64
49835;BME280;35729;52.090;13.162;2022-10-30T11:42:00;101242.53;;;19.78;61.22
49835;BME280;35729;52.090;13.162;2022-10-30T11:44:32;101235.00;;;19.86;61.65
49835;BME280;35729;52.090;13.162;2022-10-30T11:47:02;101239.06;;;19.93;61.78
49835;BME280;35729;52.090;13.162;2022-10-30T11:49:37;101230.75;;;19.99;61.21
49835;BME280;35729;52.090;13.162;2022-10-30T11:52:09;101233.09;;;20.06;61.13
49835;BME280;35729;52.090;13.162;2022-10-30T11:54:41;101227.41;;;20.12;60.75
49835;BME280;35729;52.090;13.162;2022-10-30T11:57:30;101221.59;;;20.21;59.73
49835;BME280;35729;52.090;13.162;2022-10-30T12:00:02;101223.75;;;20.30;59.74
49835;BME280;35729;52.090;13.162;2022-10-30T12:02:39;101218.94;;;20.37;59.29
49835;BME280;35729;52.090;13.162;2022-10-30T12:05:30;101224.81;;;20.44;60.53
49835;BME280;35729;52.090;13.162;2022-10-30T12:08:18;101226.25;;;20.49;60.98
49835;BME280;35729;52.090;13.162;2022-10-30T12:10:56;101230.41;;;20.55;61.76
49835;BME280;35729;52.090;13.162;2022-10-30T12:13:34;101245.06;;;20.62;61.00
49835;BME280;35729;52.090;13.162;2022-10-30T12:16:14;101234.16;;;20.67;61.82
49835;BME280;35729;52.090;13.162;2022-10-30T12:18:52;101242.78;;;20.72;61.91
49835;BME280;35729;52.090;13.162;2022-10-30T12:21:22;101240.66;;;20.79;61.81
49835;BME280;35729;52.090;13.162;2022-10-30T12:23:54;101242.94;;;20.85;62.26
49835;BME280;35729;52.090;13.162;2022-10-30T12:26:32;101237.25;;;20.91;62.42
49835;BME280;35729;52.090;13.162;2022-10-30T12:29:10;101241.22;;;21.00;62.63
49835;BME280;35729;52.090;13.162;2022-10-30T12:31:43;101238.88;;;21.10;62.85
49835;BME280;35729;52.090;13.162;2022-10-30T12:34:34;101238.91;;;21.24;62.06
49835;BME280;35729;52.090;13.162;2022-10-30T12:37:10;101236.97;;;21.42;60.98
49835;BME280;35729;52.090;13.162;2022-10-30T12:39:46;101226.09;;;21.61;60.60
49835;BME280;35729;52.090;13.162;2022-10-30T12:42:17;101227.22;;;21.86;59.62
49835;BME280;35729;52.090;13.162;2022-10-30T12:44:53;101230.50;;;22.06;58.41
49835;BME280;35729;52.090;13.162;2022-10-30T12:47:29;101214.91;;;22.27;58.19
49835;BME280;35729;52.090;13.162;2022-10-30T12:50:13;101216.13;;;22.50;57.46
49835;BME280;35729;52.090;13.162;2022-10-30T12:52:48;101210.44;;;22.69;57.67
49835;BME280;35729;52.090;13.162;2022-10-30T12:55:22;101213.53;;;22.90;55.98
49835;BME280;35729;52.090;13.162;2022-10-30T12:57:57;101219.16;;;23.13;55.97
49835;BME280;35729;52.090;13.162;2022-10-30T13:00:37;101209.03;;;23.31;56.01
49835;BME280;35729;52.090;13.162;2022-10-30T13:03:21;101209.16;;;23.55;54.84
49835;BME280;35729;52.090;13.162;2022-10-30T13:05:53;101215.72;;;23.77;55.30
49835;BME280;35729;52.090;13.162;2022-10-30T13:08:27;101212.28;;;24.01;54.45